Time;durP1;ratioP1;P1;durP2;ratioP2;P2;SDS_P1;SDS_P2;PMS_P1;PMS_P2;Temp;Humidity;BMP_temperature;BMP_pressure;BME280_temperature;BME280_humidity;BME280_pressure;Samples;Min_cycle;Max_cycle;Signal;HPM_P1;HPM_P2
2023/08/31 00:01:08;;;;;;;7.03;2.22;;;;;;;-146.27;90.29;82806.06;5049986;28;20025;-69
2023/08/31 00:03:34;;;;;;;4.72;1.80;;;;;;;-146.27;90.75;82794.00;5036018;28;20032;-68
2023/08/31 00:06:01;;;;;;;3.08;1.45;;;;;;;-146.27;90.83;82785.97;5040702;28;20556;-69
2023/08/31 00:08:27;;;;;;;4.30;1.70;;;;;;;-146.27;90.89;82818.13;5045594;28;20424;-71
2023/08/31 00:11:02;;;;;;;3.53;1.50;;;;;;;-146.27;90.81;82792.00;5042003;28;20017;-67
2023/08/31 00:13:28;;;;;;;5.93;1.48;;;;;;;-146.27;90.21;82798.03;5045113;28;20033;-69
2023/08/31 00:15:58;;;;;;;3.45;1.50;;;;;;;-146.27;90.03;82852.25;5049101;28;20032;-69
2023/08/31 00:18:24;;;;;;;3.45;1.27;;;;;;;-146.27;89.75;82733.72;5046923;28;20400;-69
2023/08/31 00:20:50;;;;;;;3.47;1.48;;;;;;;-146.27;89.47;82753.81;5041705;28;20548;-69
2023/08/31 00:23:16;;;;;;;4.80;1.15;;;;;;;-146.27;89.15;82777.94;5047654;28;20050;-67
2023/08/31 00:25:43;;;;;;;2.80;1.13;;;;;;;-146.27;88.61;82767.88;5043025;28;20029;-67
2023/08/31 00:28:09;;;;;;;7.43;1.73;;;;;;;-146.27;88.60;82802.03;5046107;28;20049;-69
2023/08/31 00:30:34;;;;;;;4.53;1.15;;;;;;;-146.27;87.64;82796.00;5047589;28;20049;-68
2023/08/31 00:33:00;;;;;;;4.45;0.80;;;;;;;-146.27;87.01;82787.97;5049495;28;20029;-69
2023/08/31 00:35:27;;;;;;;3.33;1.15;;;;;;;-146.27;86.77;82783.97;5051529;28;20119;-68
2023/08/31 00:37:58;;;;;;;2.55;0.90;;;;;;;-146.27;86.08;82781.94;5035690;28;20541;-68
2023/08/31 00:40:23;;;;;;;2.00;0.60;;;;;;;-146.27;86.09;82765.88;5046400;28;20362;-68
2023/08/31 00:42:49;;;;;;;4.28;1.17;;;;;;;-146.27;84.31;82800.03;5044131;28;20024;-68
2023/08/31 00:45:14;;;;;;;4.15;1.05;;;;;;;-146.27;84.57;82741.78;5037764;28;20020;-68
2023/08/31 00:47:39;;;;;;;5.68;0.90;;;;;;;-146.27;84.22;82810.06;5047900;28;20059;-69
2023/08/31 00:50:07;;;;;;;1.90;0.85;;;;;;;-146.27;83.58;82802.03;5047045;28;20029;-69
2023/08/31 00:52:33;;;;;;;1.73;0.60;;;;;;;-146.27;83.37;82826.16;5048277;28;20052;-70
2023/08/31 00:55:01;;;;;;;3.45;0.90;;;;;;;-146.27;83.71;82876.38;5040579;28;20078;-69
2023/08/31 00:57:29;;;;;;;1.35;0.65;;;;;;;-146.27;83.67;82832.19;5051162;28;20036;-70
2023/08/31 00:59:55;;;;;;;2.65;0.80;;;;;;;-146.27;83.56;82862.31;5043219;28;20481;-68
2023/08/31 01:02:34;;;;;;;3.58;0.85;;;;;;;-146.27;83.80;82810.06;5049922;28;20333;-68
2023/08/31 01:05:18;;;;;;;1.55;0.70;;;;;;;-146.27;84.15;82792.00;5040655;28;20520;-68
2023/08/31 01:08:29;;;;;;;5.07;0.80;;;;;;;-146.27;84.16;82866.31;5036924;28;20142;-68
2023/08/31 01:10:57;;;;;;;3.10;0.90;;;;;;;-146.27;84.68;82874.38;5037195;28;20037;-70
2023/08/31 01:13:25;;;;;;;2.00;0.80;;;;;;;-146.27;84.72;82874.38;5045357;28;20029;-69
2023/08/31 01:15:59;;;;;;;3.25;0.68;;;;;;;-146.27;85.19;82846.25;5047388;28;20028;-69
2023/08/31 01:18:27;;;;;;;5.97;0.80;;;;;;;-146.27;85.42;82842.22;5043721;28;20035;-67
2023/08/31 01:21:06;;;;;;;2.63;0.73;;;;;;;-146.27;85.56;82882.41;5041963;28;20028;-68
2023/08/31 01:23:53;;;;;;;2.05;0.88;;;;;;;-146.27;86.94;82918.56;5039677;28;20392;-68
2023/08/31 01:26:20;;;;;;;1.55;0.75;;;;;;;-146.27;87.77;82894.47;5040795;28;20032;-68
2023/08/31 01:28:46;;;;;;;2.67;0.90;;;;;;;-146.27;88.80;82930.63;5039394;28;20036;-68
2023/08/31 01:31:12;;;;;;;2.05;0.55;;;;;;;-146.27;88.64;82914.53;5037795;28;20480;-68
2023/08/31 01:33:37;;;;;;;4.28;0.93;;;;;;;-146.27;89.80;82952.72;5040721;28;20035;-68
2023/08/31 01:36:08;;;;;;;5.03;1.10;;;;;;;-146.27;90.48;82962.75;5043849;28;20044;-68
2023/08/31 01:38:37;;;;;;;1.55;0.70;;;;;;;-146.27;91.18;82938.66;5047686;28;20157;-68
2023/08/31 01:41:10;;;;;;;4.15;0.85;;;;;;;-146.27;91.82;82932.63;5040977;28;20088;-68
2023/08/31 01:43:36;;;;;;;5.93;0.93;;;;;;;-146.27;93.08;82978.84;5037618;28;20025;-68
2023/08/31 01:46:02;;;;;;;3.83;0.95;;;;;;;-146.27;94.03;82990.88;5041965;28;20283;-67
2023/08/31 01:48:28;;;;;;;2.20;0.98;;;;;;;-146.27;93.70;82984.88;5041625;28;20021;-67
2023/08/31 01:50:53;;;;;;;2.13;0.90;;;;;;;-146.27;94.70;82974.81;5043377;28;20052;-67
2023/08/31 01:53:18;;;;;;;4.20;1.05;;;;;;;-146.27;95.15;82980.84;5041477;28;20025;-67
2023/08/31 01:55:44;;;;;;;4.63;0.95;;;;;;;-146.27;94.35;82982.84;5043633;28;20053;-67
2023/08/31 01:58:09;;;;;;;3.78;1.05;;;;;;;-146.27;94.78;82978.84;5041141;28;20021;-67
2023/08/31 02:00:35;;;;;;;2.83;1.10;;;;;;;-146.27;95.36;82990.88;5035008;28;20495;-67
2023/08/31 02:03:01;;;;;;;4.65;1.42;;;;;;;-146.27;95.80;83002.94;5042869;28;20025;-67
2023/08/31 02:05:27;;;;;;;2.72;1.15;;;;;;;-146.27;96.26;82982.84;5043189;28;20039;-68
2023/08/31 02:07:53;;;;;;;6.10;1.45;;;;;;;-146.27;96.09;82972.81;5041557;28;20389;-66
2023/08/31 02:10:18;;;;;;;6.85;1.20;;;;;;;-146.27;95.69;83006.97;5035880;28;20028;-66
2023/08/31 02:12:43;;;;;;;3.00;1.20;;;;;;;-146.27;95.55;82966.78;5045134;28;20481;-66
2023/08/31 02:15:09;;;;;;;6.53;2.20;;;;;;;-146.27;94.92;83006.97;5045957;28;20397;-66
2023/08/31 02:17:35;;;;;;;7.60;1.40;;;;;;;-146.27;95.07;83006.97;5039263;28;20025;-66
2023/08/31 02:20:02;;;;;;;6.07;1.10;;;;;;;-146.27;95.06;83002.94;5041943;28;20025;-68
2023/08/31 02:22:29;;;;;;;4.82;1.20;;;;;;;-146.27;94.95;83000.94;5042377;28;20229;-66
2023/08/31 02:24:55;;;;;;;3.22;1.30;;;;;;;-146.27;95.44;83031.06;5037229;28;20045;-66
2023/08/31 02:27:21;;;;;;;3.15;1.25;;;;;;;-146.27;95.42;83025.03;5065742;28;20149;-66
2023/08/31 02:29:46;;;;;;;3.90;1.50;;;;;;;-146.27;95.44;82962.75;5048419;28;20130;-65
2023/08/31 02:32:12;;;;;;;1.70;1.25;;;;;;;-146.27;95.96;82990.88;5037625;28;20379;-66
2023/08/31 02:34:37;;;;;;;5.35;1.60;;;;;;;-146.27;95.78;83010.97;5050599;28;20025;-66
2023/08/31 02:37:03;;;;;;;4.80;1.63;;;;;;;-146.27;95.43;82954.72;5047827;28;20163;-67
2023/08/31 02:39:28;;;;;;;5.10;1.55;;;;;;;-146.27;94.99;83017.00;5049579;28;20527;-66
2023/08/31 02:41:53;;;;;;;3.67;1.70;;;;;;;-146.27;95.03;83025.03;5051057;28;20032;-67
2023/08/31 02:44:19;;;;;;;5.97;2.00;;;;;;;-146.27;95.02;83027.06;5042787;28;20033;-67
2023/08/31 02:46:44;;;;;;;7.20;1.85;;;;;;;-146.27;95.55;83023.03;5036540;28;20029;-67
2023/08/31 02:49:09;;;;;;;5.70;2.00;;;;;;;-146.27;94.96;83004.94;5032392;28;20504;-68
2023/08/31 02:51:35;;;;;;;8.98;2.42;;;;;;;-146.27;95.04;83015.00;5048532;28;20393;-68
2023/08/31 02:54:00;;;;;;;3.83;1.77;;;;;;;-146.27;94.86;83004.94;5035706;28;20480;-66
2023/08/31 02:56:25;;;;;;;2.25;1.90;;;;;;;-146.27;94.81;83010.97;5043904;28;20359;-66
2023/08/31 02:58:51;;;;;;;2.95;2.00;;;;;;;-146.27;94.72;82986.88;5040991;28;20021;-66
2023/08/31 03:01:16;;;;;;;4.95;2.00;;;;;;;-146.27;94.82;82984.88;5041385;28;20044;-67
2023/08/31 03:03:43;;;;;;;4.85;2.15;;;;;;;-146.27;95.04;83015.00;5046709;28;20027;-66
2023/08/31 03:06:09;;;;;;;2.80;1.90;;;;;;;-146.27;95.05;83037.09;5046057;28;20033;-66
2023/08/31 03:08:36;;;;;;;7.45;2.30;;;;;;;-146.27;95.07;83010.97;5043202;28;20036;-67
2023/08/31 03:11:02;;;;;;;7.22;2.53;;;;;;;-146.27;94.86;83023.03;5048175;28;20024;-67
2023/08/31 03:13:28;;;;;;;3.95;1.98;;;;;;;-146.27;94.92;83043.13;5041088;28;20029;-66
2023/08/31 03:15:53;;;;;;;3.88;1.95;;;;;;;-146.27;94.74;83010.97;5046915;28;20029;-66
2023/08/31 03:18:18;;;;;;;4.90;2.05;;;;;;;-146.27;94.64;83015.00;5041246;28;20167;-67
2023/08/31 03:20:44;;;;;;;10.73;2.47;;;;;;;-146.27;94.80;83019.03;5048206;28;20359;-67
2023/08/31 03:23:11;;;;;;;9.93;2.45;;;;;;;-146.27;94.85;83027.06;5044044;28;20473;-67
2023/08/31 03:25:36;;;;;;;4.50;1.90;;;;;;;-146.27;94.71;83035.09;5039588;28;20529;-67
2023/08/31 03:28:02;;;;;;;5.13;1.58;;;;;;;-146.27;94.63;83023.03;5047121;28;20112;-67
2023/08/31 03:30:27;;;;;;;9.60;2.10;;;;;;;-146.27;94.62;83015.00;5043700;28;20385;-67
2023/08/31 03:32:54;;;;;;;6.65;1.65;;;;;;;-146.27;94.38;83008.97;5042246;28;20025;-68
2023/08/31 03:35:19;;;;;;;4.18;1.65;;;;;;;-146.27;94.46;83013.00;5045172;28;20032;-67
2023/08/31 03:37:47;;;;;;;8.02;1.70;;;;;;;-146.27;94.56;82996.91;5040368;28;20035;-67
2023/08/31 03:40:13;;;;;;;4.80;1.50;;;;;;;-146.27;94.38;82988.88;5036628;28;20021;-67
2023/08/31 03:42:38;;;;;;;5.50;1.63;;;;;;;-146.27;94.32;83031.06;5040383;28;20047;-67
2023/08/31 03:45:04;;;;;;;7.13;1.60;;;;;;;-146.27;94.65;82958.75;5036946;28;20021;-67
2023/08/31 03:47:30;;;;;;;4.30;1.58;;;;;;;-146.27;94.38;83002.94;5039831;28;20032;-67
2023/08/31 03:49:56;;;;;;;4.55;1.65;;;;;;;-146.27;94.35;83023.03;5046660;28;20025;-67
2023/08/31 03:52:22;;;;;;;6.57;1.85;;;;;;;-146.27;94.33;83008.97;5046043;28;20060;-67
2023/08/31 03:54:48;;;;;;;3.83;1.52;;;;;;;-146.27;94.06;82990.88;5046190;28;20511;-67
2023/08/31 03:57:13;;;;;;;5.88;1.50;;;;;;;-146.27;93.95;82994.91;5046460;28;20021;-67
2023/08/31 03:59:38;;;;;;;5.55;1.35;;;;;;;-146.27;94.13;83019.03;5045966;28;20029;-67
2023/08/31 04:02:04;;;;;;;5.30;1.88;;;;;;;-146.27;93.94;82974.81;5045412;28;20020;-67
2023/08/31 04:04:29;;;;;;;8.10;1.33;;;;;;;-146.27;94.03;82958.75;5033163;28;20539;-67
2023/08/31 04:06:55;;;;;;;7.13;1.30;;;;;;;-146.27;94.11;82992.91;5039105;28;20442;-68
2023/08/31 04:09:20;;;;;;;4.18;1.08;;;;;;;-146.27;93.65;82966.78;5039097;28;20119;-66
2023/08/31 04:11:46;;;;;;;3.33;1.20;;;;;;;-146.27;93.95;82966.78;5043330;28;20071;-68
2023/08/31 04:14:11;;;;;;;3.42;1.30;;;;;;;-146.27;94.11;82954.72;5031640;28;20120;-68
2023/08/31 04:16:36;;;;;;;5.95;1.30;;;;;;;-146.27;94.46;82942.66;5045950;28;20031;-67
2023/08/31 04:19:02;;;;;;;7.97;2.17;;;;;;;-146.27;94.50;82936.66;5044697;28;20377;-67
2023/08/31 04:21:27;;;;;;;6.28;1.20;;;;;;;-146.27;94.29;82930.63;5043638;28;20021;-67
2023/08/31 04:23:52;;;;;;;9.23;1.50;;;;;;;-146.27;94.02;82940.66;5037395;28;20033;-67
2023/08/31 04:26:18;;;;;;;7.63;1.95;;;;;;;-146.27;94.19;82934.63;5040375;28;20108;-67
2023/08/31 04:28:44;;;;;;;2.40;1.38;;;;;;;-146.27;93.81;82912.53;5047531;28;20048;-67
2023/08/31 04:31:09;;;;;;;7.95;1.80;;;;;;;-146.27;93.48;82914.53;5048186;28;20037;-67
2023/08/31 04:33:36;;;;;;;5.78;1.20;;;;;;;-146.27;93.20;82894.47;5045405;28;20025;-68
2023/08/31 04:36:04;;;;;;;4.50;1.35;;;;;;;-146.27;93.36;82886.41;5045054;28;20413;-67
2023/08/31 04:38:29;;;;;;;4.82;1.35;;;;;;;-146.27;93.51;82876.38;5044405;28;20037;-67
2023/08/31 04:40:59;;;;;;;4.15;1.38;;;;;;;-146.27;93.59;82984.88;5049959;28;20036;-67
2023/08/31 04:43:24;;;;;;;4.97;1.40;;;;;;;-146.27;93.34;82910.53;5042391;28;20407;-66
2023/08/31 04:45:51;;;;;;;2.63;0.90;;;;;;;-146.27;93.46;82900.47;5045484;28;20043;-67
2023/08/31 04:48:17;;;;;;;10.13;1.65;;;;;;;-146.27;93.07;82938.66;5037170;28;20501;-67
2023/08/31 04:50:42;;;;;;;5.00;1.33;;;;;;;-146.27;93.85;82910.53;5039023;28;20104;-67
2023/08/31 04:53:07;;;;;;;7.45;1.60;;;;;;;-146.27;93.54;82918.56;5044359;28;20029;-67
2023/08/31 04:55:33;;;;;;;2.45;0.90;;;;;;;-146.27;93.49;82908.50;5045752;28;20107;-66
2023/08/31 04:57:58;;;;;;;4.30;1.25;;;;;;;-146.27;93.15;82882.41;5044895;28;20577;-68
2023/08/31 05:00:24;;;;;;;3.55;1.05;;;;;;;-146.27;93.66;82866.31;5047311;28;20036;-66
2023/08/31 05:02:49;;;;;;;6.07;1.15;;;;;;;-146.27;93.95;82894.47;5049181;28;20067;-66
2023/08/31 05:05:15;;;;;;;8.50;1.50;;;;;;;-146.27;94.17;82884.41;5047166;28;20068;-66
2023/08/31 05:07:40;;;;;;;9.48;2.10;;;;;;;-146.27;95.34;82894.47;5037038;28;20049;-67
2023/08/31 05:10:08;;;;;;;10.10;2.17;;;;;;;-146.27;95.51;82838.19;5046229;28;20230;-66
2023/08/31 05:12:33;;;;;;;12.25;2.72;;;;;;;-146.27;95.46;82890.44;5044566;28;20036;-66
2023/08/31 05:14:58;;;;;;;6.13;1.70;;;;;;;-146.27;95.97;82876.38;5038176;28;20448;-67
2023/08/31 05:17:24;;;;;;;6.25;1.10;;;;;;;-146.27;96.40;82874.38;5045620;28;20094;-66
2023/08/31 05:19:50;;;;;;;8.60;2.05;;;;;;;-146.27;97.45;82878.38;5041362;28;20022;-67
2023/08/31 05:22:15;;;;;;;5.35;1.73;;;;;;;-146.27;97.91;82870.34;5040607;28;20033;-69
2023/08/31 05:24:41;;;;;;;9.38;2.72;;;;;;;-146.27;98.31;82846.25;5039918;28;20029;-66
2023/08/31 05:27:06;;;;;;;13.13;2.63;;;;;;;-146.27;98.97;82894.47;5046424;28;20366;-66
2023/08/31 05:29:32;;;;;;;6.82;2.17;;;;;;;-146.27;99.49;82840.22;5047704;28;20400;-67
2023/08/31 05:31:57;;;;;;;7.50;2.30;;;;;;;-146.27;99.31;82888.44;5046605;28;20023;-66
2023/08/31 05:34:23;;;;;;;13.15;2.83;;;;;;;-146.27;99.59;82858.28;5043490;28;20036;-67
2023/08/31 05:36:48;;;;;;;8.20;2.47;;;;;;;-146.27;100.00;82846.25;5040621;28;20040;-67
2023/08/31 05:39:16;;;;;;;5.30;2.35;;;;;;;-146.27;100.00;82854.28;5044781;28;20032;-66
2023/08/31 05:41:41;;;;;;;6.28;2.38;;;;;;;-146.27;100.00;82842.22;5047723;28;20396;-67
2023/08/31 05:44:07;;;;;;;5.50;2.10;;;;;;;-146.27;100.00;82852.25;5044664;28;20064;-66
2023/08/31 05:46:33;;;;;;;14.38;2.33;;;;;;;-146.27;100.00;82880.41;5032540;28;21648;-65
2023/08/31 05:48:58;;;;;;;9.40;2.20;;;;;;;-146.27;100.00;82838.19;5043413;28;20024;-67
2023/08/31 05:51:24;;;;;;;10.70;2.30;;;;;;;-146.27;100.00;82842.22;5048187;28;20035;-68
2023/08/31 05:53:49;;;;;;;8.80;2.50;;;;;;;-146.27;100.00;82794.00;5049139;28;20086;-69
2023/08/31 05:56:15;;;;;;;5.72;2.15;;;;;;;-146.27;100.00;82830.16;5043029;28;20079;-68
2023/08/31 05:58:40;;;;;;;9.48;2.28;;;;;;;-146.27;100.00;82854.28;5047444;28;20025;-67
2023/08/31 06:01:06;;;;;;;11.45;2.28;;;;;;;-146.27;100.00;82822.13;5037312;28;20102;-67
2023/08/31 06:03:32;;;;;;;7.32;1.95;;;;;;;-146.27;100.00;82781.94;5044384;28;20082;-67
2023/08/31 06:05:59;;;;;;;6.93;2.00;;;;;;;-146.27;100.00;82840.22;5055847;28;20036;-68
2023/08/31 06:08:24;;;;;;;6.63;1.75;;;;;;;-146.27;99.61;82860.31;5062647;28;20020;-69
2023/08/31 06:10:50;;;;;;;8.80;1.75;;;;;;;-146.27;99.33;82830.16;5048141;28;20025;-67
2023/08/31 06:13:16;;;;;;;5.80;1.80;;;;;;;-146.27;99.08;82858.28;5047049;28;20048;-68
2023/08/31 06:15:44;;;;;;;4.70;1.50;;;;;;;-146.27;98.23;82894.47;5052263;28;20044;-68
2023/08/31 06:18:09;;;;;;;6.35;1.70;;;;;;;-146.27;98.26;82858.28;5065783;28;20025;-67
2023/08/31 06:20:35;;;;;;;4.70;1.27;;;;;;;-146.27;97.63;82874.38;5053122;28;20496;-68
2023/08/31 06:23:00;;;;;;;4.22;1.30;;;;;;;-146.27;97.75;82866.31;5039060;28;20038;-68
2023/08/31 06:25:25;;;;;;;6.30;1.42;;;;;;;-146.27;97.60;82860.31;5050897;28;20164;-68
2023/08/31 06:27:51;;;;;;;8.88;1.63;;;;;;;-146.27;97.35;82860.31;5042502;28;20025;-69
2023/08/31 06:30:17;;;;;;;6.82;1.42;;;;;;;-146.27;96.96;82860.31;5033635;28;20389;-68
2023/08/31 06:32:47;;;;;;;10.70;1.90;;;;;;;-146.27;96.81;82850.25;5033442;28;20039;-68
2023/08/31 06:35:13;;;;;;;5.57;1.40;;;;;;;-146.27;96.31;82906.50;5034813;28;20028;-68
2023/08/31 06:37:39;;;;;;;6.18;1.48;;;;;;;-146.27;95.91;82878.38;5052532;28;20119;-67
2023/08/31 06:40:09;;;;;;;7.25;1.20;;;;;;;-146.27;95.88;82858.28;5054463;28;20040;-68
2023/08/31 06:42:36;;;;;;;3.33;1.15;;;;;;;-146.27;95.26;82846.25;5047073;28;20336;-68
2023/08/31 06:45:03;;;;;;;5.97;1.30;;;;;;;-146.27;95.24;82830.16;5035738;28;20025;-67
2023/08/31 06:47:29;;;;;;;6.47;1.40;;;;;;;-146.27;95.48;82874.38;5053165;28;20017;-67
2023/08/31 06:49:54;;;;;;;8.52;1.50;;;;;;;-146.27;95.03;82850.25;5053171;28;20143;-68
2023/08/31 06:52:19;;;;;;;5.05;1.10;;;;;;;-146.27;93.57;82840.22;5048748;28;20135;-68
2023/08/31 06:54:45;;;;;;;4.30;1.40;;;;;;;-146.27;93.10;82842.22;5033178;28;20037;-68
2023/08/31 06:57:10;;;;;;;7.70;1.27;;;;;;;-146.27;93.00;82890.44;5033645;28;20036;-68
2023/08/31 06:59:35;;;;;;;12.45;1.90;;;;;;;-146.27;93.42;82842.22;5044472;28;20120;-67
2023/08/31 07:02:01;;;;;;;6.32;1.33;;;;;;;-146.27;93.06;82826.16;5053024;28;20044;-68
2023/08/31 07:04:27;;;;;;;8.85;1.10;;;;;;;-146.27;92.07;82870.34;5052761;28;20029;-69
2023/08/31 07:06:52;;;;;;;3.90;1.20;;;;;;;-146.27;92.33;82755.84;5045449;28;20025;-69
2023/08/31 07:09:18;;;;;;;5.72;0.80;;;;;;;-146.27;92.15;82705.59;5033020;28;20536;-68
2023/08/31 07:11:43;;;;;;;5.60;1.45;;;;;;;-146.27;89.82;82755.84;5032847;28;20029;-68
2023/08/31 07:14:08;;;;;;;3.85;0.88;;;;;;;-146.27;89.16;82725.69;5032753;28;20302;-68
2023/08/31 07:16:34;;;;;;;6.55;0.82;;;;;;;-146.27;88.77;82671.47;5044522;28;20049;-68
2023/08/31 07:18:59;;;;;;;4.53;0.98;;;;;;;-146.27;88.25;82669.44;5040533;28;20124;-68
2023/08/31 07:21:24;;;;;;;2.17;0.90;;;;;;;-146.27;86.54;82653.38;5032716;28;20021;-67
2023/08/31 07:23:50;;;;;;;6.43;1.45;;;;;;;-146.27;86.07;82597.13;5032671;28;20500;-68
2023/08/31 07:26:16;;;;;;;7.50;1.08;;;;;;;-146.27;84.69;82536.84;5035573;28;20040;-68
2023/08/31 07:28:41;;;;;;;7.07;1.13;;;;;;;-146.27;84.76;82562.97;5032651;28;20025;-69
2023/08/31 07:31:07;;;;;;;7.90;0.88;;;;;;;-146.27;84.50;82492.66;5032172;28;20041;-69
2023/08/31 07:33:36;;;;;;;2.60;0.77;;;;;;;-146.27;84.56;82492.66;5032476;28;20358;-69
2023/08/31 07:36:03;;;;;;;6.70;0.80;;;;;;;-146.27;81.41;82468.56;5039334;28;20119;-68
2023/08/31 07:38:30;;;;;;;4.28;0.75;;;;;;;-146.27;81.08;82460.53;5052219;28;20017;-69
2023/08/31 07:40:56;;;;;;;3.70;0.98;;;;;;;-146.27;80.51;82446.47;5047767;28;20045;-69
2023/08/31 07:43:21;;;;;;;2.55;0.68;;;;;;;-146.27;80.84;82430.38;5032365;28;20367;-69
2023/08/31 07:45:47;;;;;;;7.65;0.93;;;;;;;-146.27;80.04;82444.44;5034985;28;20040;-69
2023/08/31 07:48:12;;;;;;;1.45;0.70;;;;;;;-146.27;78.60;82404.28;5052488;28;20457;-69
2023/08/31 07:50:41;;;;;;;6.18;0.70;;;;;;;-146.27;78.21;82372.13;5052244;28;20100;-69
2023/08/31 07:53:07;;;;;;;3.63;0.60;;;;;;;-146.27;78.09;82352.03;5050863;28;20592;-70
2023/08/31 07:55:32;;;;;;;2.45;0.90;;;;;;;-146.27;76.06;82366.09;5031766;28;20109;-69
2023/08/31 07:57:58;;;;;;;3.30;0.90;;;;;;;-146.27;76.86;82327.94;5032501;28;20473;-73
2023/08/31 08:00:23;;;;;;;4.82;1.13;;;;;;;-146.27;76.68;82285.75;5032070;28;20486;-74
2023/08/31 08:02:48;;;;;;;5.53;1.60;;;;;;;-146.27;75.95;82279.72;5036258;28;20395;-73
2023/08/31 08:05:14;;;;;;;5.68;1.17;;;;;;;-146.27;76.17;82227.50;5058640;28;20057;-74
2023/08/31 08:07:42;;;;;;;2.63;0.60;;;;;;;-146.27;73.34;82289.78;5050602;28;20032;-73
2023/08/31 08:10:08;;;;;;;3.88;0.73;;;;;;;-146.27;73.09;82227.50;5051670;28;20480;-75
2023/08/31 08:12:40;;;;;;;3.70;0.93;;;;;;;-146.27;72.81;82201.38;5035657;28;20112;-73
2023/08/31 08:15:07;;;;;;;4.30;0.60;;;;;;;-146.27;72.40;82211.44;5031832;28;20045;-73
2023/08/31 08:17:33;;;;;;;5.78;1.38;;;;;;;-146.27;72.32;82219.47;5044643;28;20027;-73
2023/08/31 08:19:58;;;;;;;3.10;0.75;;;;;;;-146.27;72.69;82187.31;5039731;28;20460;-73
2023/08/31 08:22:25;;;;;;;4.75;0.90;;;;;;;-146.27;71.46;82169.25;5035100;28;20036;-73
2023/08/31 08:24:50;;;;;;;6.43;1.10;;;;;;;-146.27;70.19;82127.06;5050263;28;20021;-73
2023/08/31 08:27:17;;;;;;;3.55;0.85;;;;;;;-146.27;70.04;82115.00;5043530;28;20393;-74
2023/08/31 08:29:43;;;;;;;4.60;1.08;;;;;;;-146.27;70.13;82086.91;5051234;28;20550;-73
2023/08/31 08:32:08;;;;;;;4.07;0.68;;;;;;;-146.27;69.26;82086.91;5049809;28;20020;-72
2023/08/31 08:34:34;;;;;;;4.47;0.80;;;;;;;-146.27;69.52;82092.91;5031110;28;20063;-72
2023/08/31 08:36:59;;;;;;;3.65;0.80;;;;;;;-146.27;68.83;82084.88;5041645;28;20031;-72
2023/08/31 08:39:25;;;;;;;4.97;0.80;;;;;;;-146.27;69.36;82062.78;5050082;28;20032;-73
2023/08/31 08:41:54;;;;;;;2.45;0.95;;;;;;;-146.27;70.97;81964.38;5051051;28;20154;-74
2023/08/31 08:44:25;;;;;;;7.03;0.80;;;;;;;-146.27;70.85;81954.31;5056222;28;20133;-72
2023/08/31 08:46:51;;;;;;;7.30;0.98;;;;;;;-146.27;69.35;81982.44;5048877;28;20476;-72
2023/08/31 08:49:18;;;;;;;6.97;1.13;;;;;;;-146.27;69.03;81918.16;5030537;28;20029;-73
2023/08/31 08:51:46;;;;;;;3.35;0.88;;;;;;;-146.27;68.43;81914.16;5046545;28;20113;-72
2023/08/31 08:54:12;;;;;;;3.78;0.80;;;;;;;-146.27;63.41;81946.28;5040698;28;20565;-71
2023/08/31 08:56:38;;;;;;;6.10;0.80;;;;;;;-146.27;64.94;81857.91;5031120;28;20025;-73
2023/08/31 08:59:03;;;;;;;2.50;1.30;;;;;;;-146.27;65.31;81902.09;5030661;28;20040;-72
2023/08/31 09:01:29;;;;;;;4.45;0.98;;;;;;;-146.27;65.75;81861.94;5048433;28;20468;-73
2023/08/31 09:03:54;;;;;;;5.38;1.35;;;;;;;-146.27;66.27;81821.75;5044297;28;20033;-74
2023/08/31 09:06:20;;;;;;;9.70;1.10;;;;;;;-146.27;66.45;81807.69;5050650;28;20025;-73
2023/08/31 09:08:53;;;;;;;2.30;0.52;;;;;;;-146.27;62.73;81777.56;5050712;28;20029;-72
2023/08/31 09:11:22;;;;;;;3.67;0.68;;;;;;;-146.27;62.31;81737.41;5042993;28;20029;-72
2023/08/31 09:13:48;;;;;;;1.90;0.60;;;;;;;-146.27;58.79;81795.66;5030378;28;20057;-72
2023/08/31 09:16:25;;;;;;;2.65;1.60;;;;;;;-146.27;59.85;81787.63;5030275;28;20104;-72
2023/08/31 09:18:50;;;;;;;10.07;0.98;;;;;;;-146.27;60.95;81803.69;5043126;28;20029;-73
2023/08/31 09:21:17;;;;;;;6.40;0.82;;;;;;;-146.27;61.99;81827.78;5049467;28;20067;-73
2023/08/31 09:23:47;;;;;;;3.40;0.70;;;;;;;-146.27;60.79;81789.63;5050250;28;20025;-72
2023/08/31 09:26:12;;;;;;;3.75;0.80;;;;;;;-146.27;57.79;81785.59;5030815;28;20025;-72
2023/08/31 09:28:40;;;;;;;1.95;0.60;;;;;;;-146.27;59.02;81745.44;5030302;28;20022;-73
2023/08/31 09:31:07;;;;;;;3.90;0.70;;;;;;;-146.27;56.90;81801.69;5030260;28;20398;-73
2023/08/31 09:33:36;;;;;;;1.98;0.80;;;;;;;-146.27;58.36;81781.59;5037656;28;20042;-74
2023/08/31 09:36:03;;;;;;;3.85;0.95;;;;;;;-146.27;56.09;81807.69;5050009;28;20032;-74
2023/08/31 09:38:29;;;;;;;1.92;0.60;;;;;;;-146.27;56.31;81823.78;5043347;28;20124;-74
2023/08/31 09:41:04;;;;;;;3.22;1.05;;;;;;;-146.27;56.32;81745.44;5046982;28;20557;-74
2023/08/31 09:43:30;;;;;;;2.45;0.88;;;;;;;-146.27;56.57;81685.19;5049683;28;20029;-74
2023/08/31 09:45:55;;;;;;;1.45;0.80;;;;;;;-146.27;54.81;81703.25;5049834;28;20401;-76
2023/08/31 09:48:22;;;;;;;3.10;0.60;;;;;;;-146.27;53.92;81653.06;5048894;28;20481;-73
2023/08/31 09:50:50;;;;;;;2.72;0.57;;;;;;;-146.27;54.92;81641.00;5047820;28;20040;-75
2023/08/31 09:53:16;;;;;;;4.97;0.68;;;;;;;-146.27;54.81;81651.03;5029999;28;20037;-71
2023/08/31 09:55:43;;;;;;;2.10;0.60;;;;;;;-146.27;55.04;81655.06;5029768;28;20026;-75
2023/08/31 09:58:12;;;;;;;2.97;0.68;;;;;;;-146.27;55.80;81634.97;5030423;28;20035;-75
2023/08/31 10:00:37;;;;;;;1.98;0.75;;;;;;;-146.27;55.43;81649.03;5048025;28;20021;-75
2023/08/31 10:03:04;;;;;;;3.53;1.00;;;;;;;-146.27;54.60;81663.09;5049743;28;20052;-73
2023/08/31 10:05:31;;;;;;;2.67;0.77;;;;;;;-146.27;55.69;81620.91;5049922;28;20028;-76
2023/08/31 10:07:58;;;;;;;3.38;0.80;;;;;;;-146.27;55.06;81683.19;5049566;28;20059;-76
2023/08/31 10:10:23;;;;;;;2.28;0.77;;;;;;;-146.27;54.27;81586.78;5030536;28;20076;-73
2023/08/31 10:12:49;;;;;;;5.45;0.52;;;;;;;-146.27;53.38;81544.59;5036336;28;20052;-72
2023/08/31 10:15:16;;;;;;;1.52;0.43;;;;;;;-146.27;50.79;81492.38;5038293;28;20492;-74
2023/08/31 10:17:42;;;;;;;4.55;0.88;;;;;;;-146.27;48.98;81504.44;5049520;28;20051;-74
2023/08/31 10:20:13;;;;;;;3.33;0.90;;;;;;;-146.27;49.58;81464.25;5049679;28;20032;-76
2023/08/31 10:22:39;;;;;;;6.75;0.63;;;;;;;-146.27;49.04;81416.06;5048381;28;20368;-74
2023/08/31 10:25:06;;;;;;;4.45;0.90;;;;;;;-146.27;49.90;81319.66;5034358;28;20018;-76
2023/08/31 10:27:50;;;;;;;4.30;0.80;;;;;;;-146.27;47.22;81307.63;5030005;28;20029;-73
2023/08/31 10:30:21;;;;;;;3.63;0.50;;;;;;;-146.27;46.86;81259.41;5029642;28;20025;-75
2023/08/31 10:33:19;;;;;;;3.00;0.80;;;;;;;-146.27;46.54;81207.19;5036937;28;20087;-74
2023/08/31 10:35:47;;;;;;;3.53;0.75;;;;;;;-146.27;47.10;81183.09;5042035;28;20090;-76
2023/08/31 10:38:14;;;;;;;5.28;0.60;;;;;;;-146.27;44.23;81299.59;5036420;28;20079;-73
2023/08/31 10:40:39;;;;;;;1.73;0.50;;;;;;;-146.27;45.39;81243.34;5035578;28;20029;-73
2023/08/31 10:43:15;;;;;;;2.80;0.45;;;;;;;-146.27;44.91;81199.16;5043615;28;20032;-74
2023/08/31 10:45:44;;;;;;;2.75;0.60;;;;;;;-146.27;45.32;81140.94;5045596;28;20158;-73
2023/08/31 10:48:10;;;;;;;2.22;0.75;;;;;;;-146.27;45.25;81104.78;5047335;28;20021;-73
2023/08/31 10:50:42;;;;;;;2.65;0.60;;;;;;;-146.27;44.83;81086.72;5044070;28;20029;-75
2023/08/31 10:53:12;;;;;;;2.80;0.77;;;;;;;-146.27;47.69;81026.47;5049869;28;20511;-76
2023/08/31 10:55:53;;;;;;;1.58;0.55;;;;;;;-146.27;45.26;81078.69;5050392;28;20036;-74
2023/08/31 10:58:19;;;;;;;1.77;0.60;;;;;;;-146.27;43.04;81056.59;5051907;28;20534;-74
2023/08/31 11:00:56;;;;;;;3.65;1.02;;;;;;;-146.27;43.58;81104.78;5038555;28;20245;-74
2023/08/31 11:03:22;;;;;;;5.60;0.88;;;;;;;-146.27;43.75;81012.41;5034865;28;20079;-75
2023/08/31 11:05:53;;;;;;;3.85;0.70;;;;;;;-146.27;44.00;80946.13;5036185;28;20024;-74
2023/08/31 11:08:26;;;;;;;3.55;0.70;;;;;;;-146.27;43.60;80861.81;5043211;28;20060;-75
2023/08/31 11:10:52;;;;;;;4.60;0.60;;;;;;;-146.27;44.17;80849.75;5053135;28;20473;-75
2023/08/31 11:13:23;;;;;;;1.65;0.52;;;;;;;-146.27;42.03;80897.94;5048303;28;20477;-74
2023/08/31 11:15:49;;;;;;;1.10;0.70;;;;;;;-146.27;41.36;80905.97;5032650;28;20356;-74